sensor_id;sensor_type;location;lat;lon;timestamp;P1;durP1;ratioP1;P2;durP2;ratioP2
77248;SDS011;66280;45.124;20.718;2023-10-08T00:00:03;23.80;;;14.50;;
77248;SDS011;66280;45.124;20.718;2023-10-08T00:10:25;24.87;;;12.47;;
77248;SDS011;66280;45.124;20.718;2023-10-08T00:20:27;18.77;;;12.47;;
77248;SDS011;66280;45.124;20.718;2023-10-08T00:30:39;20.90;;;10.63;;
77248;SDS011;66280;45.124;20.718;2023-10-08T00:40:42;17.53;;;10.13;;
77248;SDS011;66280;45.124;20.718;2023-10-08T00:50:47;17.60;;;10.67;;
77248;SDS011;66280;45.124;20.718;2023-10-08T01:00:50;19.17;;;10.60;;
77248;SDS011;66280;45.124;20.718;2023-10-08T01:10:53;19.73;;;10.33;;
77248;SDS011;66280;45.124;20.718;2023-10-08T01:21:01;21.52;;;10.85;;
77248;SDS011;66280;45.124;20.718;2023-10-08T01:31:11;18.60;;;10.07;;
77248;SDS011;66280;45.124;20.718;2023-10-08T01:41:14;12.03;;;8.00;;
77248;SDS011;66280;45.124;20.718;2023-10-08T01:51:22;18.83;;;9.90;;
77248;SDS011;66280;45.124;20.718;2023-10-08T02:01:37;17.53;;;9.80;;
77248;SDS011;66280;45.124;20.718;2023-10-08T02:11:43;15.32;;;8.65;;
77248;SDS011;66280;45.124;20.718;2023-10-08T02:21:54;12.67;;;8.10;;
77248;SDS011;66280;45.124;20.718;2023-10-08T02:31:57;16.43;;;9.70;;
77248;SDS011;66280;45.124;20.718;2023-10-08T02:42:00;13.57;;;8.43;;
77248;SDS011;66280;45.124;20.718;2023-10-08T02:52:01;14.90;;;8.40;;
77248;SDS011;66280;45.124;20.718;2023-10-08T03:02:05;14.55;;;8.25;;
77248;SDS011;66280;45.124;20.718;2023-10-08T03:12:19;13.07;;;9.00;;
77248;SDS011;66280;45.124;20.718;2023-10-08T03:22:26;20.90;;;9.00;;
77248;SDS011;66280;45.124;20.718;2023-10-08T03:32:34;17.53;;;8.07;;
77248;SDS011;66280;45.124;20.718;2023-10-08T03:42:36;14.70;;;7.37;;
77248;SDS011;66280;45.124;20.718;2023-10-08T03:52:42;13.38;;;8.57;;
77248;SDS011;66280;45.124;20.718;2023-10-08T04:02:45;15.53;;;8.13;;
77248;SDS011;66280;45.124;20.718;2023-10-08T04:12:56;15.53;;;7.27;;
77248;SDS011;66280;45.124;20.718;2023-10-08T04:22:58;14.03;;;7.37;;
77248;SDS011;66280;45.124;20.718;2023-10-08T04:33:01;13.77;;;7.23;;
77248;SDS011;66280;45.124;20.718;2023-10-08T04:43:07;11.23;;;6.10;;
77248;SDS011;66280;45.124;20.718;2023-10-08T04:53:11;14.57;;;7.47;;
77248;SDS011;66280;45.124;20.718;2023-10-08T05:03:17;11.73;;;6.93;;
77248;SDS011;66280;45.124;20.718;2023-10-08T05:13:21;16.80;;;7.67;;
77248;SDS011;66280;45.124;20.718;2023-10-08T05:23:31;15.73;;;7.23;;
77248;SDS011;66280;45.124;20.718;2023-10-08T05:33:54;19.33;;;7.20;;
77248;SDS011;66280;45.124;20.718;2023-10-08T05:44:14;18.70;;;8.50;;
77248;SDS011;66280;45.124;20.718;2023-10-08T05:54:24;19.43;;;9.17;;
77248;SDS011;66280;45.124;20.718;2023-10-08T06:04:32;20.30;;;9.30;;
77248;SDS011;66280;45.124;20.718;2023-10-08T06:15:00;15.43;;;8.47;;
77248;SDS011;66280;45.124;20.718;2023-10-08T06:25:08;13.30;;;8.43;;
77248;SDS011;66280;45.124;20.718;2023-10-08T06:35:24;17.60;;;9.67;;
77248;SDS011;66280;45.124;20.718;2023-10-08T06:45:28;20.13;;;9.53;;
77248;SDS011;66280;45.124;20.718;2023-10-08T06:55:32;15.60;;;8.80;;
77248;SDS011;66280;45.124;20.718;2023-10-08T07:05:36;14.17;;;8.73;;
77248;SDS011;66280;45.124;20.718;2023-10-08T07:15:42;11.88;;;8.45;;
77248;SDS011;66280;45.124;20.718;2023-10-08T07:25:46;10.97;;;7.83;;
77248;SDS011;66280;45.124;20.718;2023-10-08T07:35:53;12.53;;;8.37;;
77248;SDS011;66280;45.124;20.718;2023-10-08T07:46:13;20.23;;;8.00;;
77248;SDS011;66280;45.124;20.718;2023-10-08T07:56:16;15.60;;;8.17;;
77248;SDS011;66280;45.124;20.718;2023-10-08T08:06:18;18.95;;;6.78;;
77248;SDS011;66280;45.124;20.718;2023-10-08T08:16:20;16.57;;;9.33;;
77248;SDS011;66280;45.124;20.718;2023-10-08T08:26:23;17.73;;;9.73;;
77248;SDS011;66280;45.124;20.718;2023-10-08T08:36:40;16.53;;;9.13;;
77248;SDS011;66280;45.124;20.718;2023-10-08T08:46:49;17.23;;;10.43;;
77248;SDS011;66280;45.124;20.718;2023-10-08T08:56:51;17.13;;;10.85;;
77248;SDS011;66280;45.124;20.718;2023-10-08T09:06:53;17.60;;;12.13;;
77248;SDS011;66280;45.124;20.718;2023-10-08T09:16:55;25.80;;;12.60;;
77248;SDS011;66280;45.124;20.718;2023-10-08T09:26:57;19.80;;;12.73;;
77248;SDS011;66280;45.124;20.718;2023-10-08T09:36:59;23.23;;;12.97;;
77248;SDS011;66280;45.124;20.718;2023-10-08T09:47:03;24.60;;;12.75;;
77248;SDS011;66280;45.124;20.718;2023-10-08T09:57:06;45.17;;;11.83;;
77248;SDS011;66280;45.124;20.718;2023-10-08T10:07:11;20.77;;;13.10;;
77248;SDS011;66280;45.124;20.718;2023-10-08T10:17:27;19.80;;;12.30;;
77248;SDS011;66280;45.124;20.718;2023-10-08T10:27:29;35.90;;;11.93;;
77248;SDS011;66280;45.124;20.718;2023-10-08T10:37:32;20.42;;;9.85;;
77248;SDS011;66280;45.124;20.718;2023-10-08T10:47:44;19.97;;;7.17;;
77248;SDS011;66280;45.124;20.718;2023-10-08T11:08:05;56.40;;;9.88;;
77248;SDS011;66280;45.124;20.718;2023-10-08T11:18:11;42.83;;;8.90;;
77248;SDS011;66280;45.124;20.718;2023-10-08T11:28:13;33.20;;;6.77;;
77248;SDS011;66280;45.124;20.718;2023-10-08T11:38:14;20.20;;;7.45;;
77248;SDS011;66280;45.124;20.718;2023-10-08T11:48:23;58.97;;;6.63;;
77248;SDS011;66280;45.124;20.718;2023-10-08T11:58:30;25.00;;;5.00;;
77248;SDS011;66280;45.124;20.718;2023-10-08T12:08:38;27.02;;;4.03;;
77248;SDS011;66280;45.124;20.718;2023-10-08T12:18:40;88.13;;;9.00;;
77248;SDS011;66280;45.124;20.718;2023-10-08T12:28:43;81.97;;;9.27;;
77248;SDS011;66280;45.124;20.718;2023-10-08T12:38:49;34.73;;;5.57;;
77248;SDS011;66280;45.124;20.718;2023-10-08T12:48:58;18.93;;;4.57;;
77248;SDS011;66280;45.124;20.718;2023-10-08T12:59:02;38.88;;;5.70;;
77248;SDS011;66280;45.124;20.718;2023-10-08T13:09:09;36.17;;;6.57;;
77248;SDS011;66280;45.124;20.718;2023-10-08T13:19:14;26.10;;;5.00;;
77248;SDS011;66280;45.124;20.718;2023-10-08T13:29:16;21.50;;;4.33;;
77248;SDS011;66280;45.124;20.718;2023-10-08T13:39:19;30.47;;;4.90;;
77248;SDS011;66280;45.124;20.718;2023-10-08T13:49:21;21.35;;;4.47;;
77248;SDS011;66280;45.124;20.718;2023-10-08T13:59:22;31.37;;;4.40;;
77248;SDS011;66280;45.124;20.718;2023-10-08T14:09:25;24.03;;;4.27;;
77248;SDS011;66280;45.124;20.718;2023-10-08T14:19:37;11.67;;;3.60;;
77248;SDS011;66280;45.124;20.718;2023-10-08T14:29:52;11.27;;;2.83;;
77248;SDS011;66280;45.124;20.718;2023-10-08T14:39:54;16.60;;;3.63;;
77248;SDS011;66280;45.124;20.718;2023-10-08T14:50:14;11.93;;;3.87;;
77248;SDS011;66280;45.124;20.718;2023-10-08T15:00:20;36.03;;;5.07;;
77248;SDS011;66280;45.124;20.718;2023-10-08T15:10:28;37.03;;;5.97;;
77248;SDS011;66280;45.124;20.718;2023-10-08T15:20:31;11.13;;;3.67;;
77248;SDS011;66280;45.124;20.718;2023-10-08T15:30:34;13.18;;;5.70;;
77248;SDS011;66280;45.124;20.718;2023-10-08T15:40:36;15.43;;;3.17;;
77248;SDS011;66280;45.124;20.718;2023-10-08T15:50:38;15.23;;;3.57;;
77248;SDS011;66280;45.124;20.718;2023-10-08T16:00:41;8.87;;;4.50;;
77248;SDS011;66280;45.124;20.718;2023-10-08T16:10:42;20.97;;;4.27;;
77248;SDS011;66280;45.124;20.718;2023-10-08T16:20:44;14.82;;;3.75;;
77248;SDS011;66280;45.124;20.718;2023-10-08T16:30:46;7.90;;;3.17;;
77248;SDS011;66280;45.124;20.718;2023-10-08T16:40:52;10.53;;;3.07;;
77248;SDS011;66280;45.124;20.718;2023-10-08T16:50:54;8.37;;;2.87;;
77248;SDS011;66280;45.124;20.718;2023-10-08T17:00:55;13.00;;;3.67;;
77248;SDS011;66280;45.124;20.718;2023-10-08T17:10:57;9.25;;;1.83;;
77248;SDS011;66280;45.124;20.718;2023-10-08T17:20:59;1.60;;;1.50;;
77248;SDS011;66280;45.124;20.718;2023-10-08T17:31:00;1.33;;;1.23;;
77248;SDS011;66280;45.124;20.718;2023-10-08T17:41:02;2.93;;;1.30;;
77248;SDS011;66280;45.124;20.718;2023-10-08T17:51:04;3.27;;;1.43;;
77248;SDS011;66280;45.124;20.718;2023-10-08T18:01:07;2.20;;;0.98;;
77248;SDS011;66280;45.124;20.718;2023-10-08T18:11:18;7.83;;;1.33;;
77248;SDS011;66280;45.124;20.718;2023-10-08T18:21:20;1.53;;;0.80;;
77248;SDS011;66280;45.124;20.718;2023-10-08T18:31:22;1.20;;;1.10;;
77248;SDS011;66280;45.124;20.718;2023-10-08T18:41:24;1.33;;;1.17;;
77248;SDS011;66280;45.124;20.718;2023-10-08T18:51:27;7.60;;;2.45;;
77248;SDS011;66280;45.124;20.718;2023-10-08T19:01:28;15.40;;;3.70;;
77248;SDS011;66280;45.124;20.718;2023-10-08T19:11:32;3.40;;;2.00;;
77248;SDS011;66280;45.124;20.718;2023-10-08T19:21:33;2.73;;;2.00;;
77248;SDS011;66280;45.124;20.718;2023-10-08T19:31:38;4.33;;;2.57;;
77248;SDS011;66280;45.124;20.718;2023-10-08T19:41:40;2.70;;;2.38;;
77248;SDS011;66280;45.124;20.718;2023-10-08T19:51:42;2.60;;;2.37;;
77248;SDS011;66280;45.124;20.718;2023-10-08T20:01:43;2.90;;;2.00;;
77248;SDS011;66280;45.124;20.718;2023-10-08T20:11:45;2.80;;;2.10;;
77248;SDS011;66280;45.124;20.718;2023-10-08T20:21:47;3.67;;;1.77;;
77248;SDS011;66280;45.124;20.718;2023-10-08T20:31:48;1.77;;;1.67;;
77248;SDS011;66280;45.124;20.718;2023-10-08T20:41:50;4.43;;;2.17;;
77248;SDS011;66280;45.124;20.718;2023-10-08T20:51:51;2.90;;;2.60;;
77248;SDS011;66280;45.124;20.718;2023-10-08T21:01:53;5.63;;;3.40;;
77248;SDS011;66280;45.124;20.718;2023-10-08T21:11:55;6.97;;;4.77;;
77248;SDS011;66280;45.124;20.718;2023-10-08T21:21:56;10.95;;;4.13;;
77248;SDS011;66280;45.124;20.718;2023-10-08T21:31:58;6.07;;;4.60;;
77248;SDS011;66280;45.124;20.718;2023-10-08T21:42:00;4.97;;;3.53;;
77248;SDS011;66280;45.124;20.718;2023-10-08T21:52:02;6.17;;;3.73;;
77248;SDS011;66280;45.124;20.718;2023-10-08T22:02:03;5.37;;;4.70;;
77248;SDS011;66280;45.124;20.718;2023-10-08T22:12:06;6.80;;;4.22;;
77248;SDS011;66280;45.124;20.718;2023-10-08T22:22:09;5.63;;;4.27;;
77248;SDS011;66280;45.124;20.718;2023-10-08T22:32:13;5.17;;;4.10;;
77248;SDS011;66280;45.124;20.718;2023-10-08T22:42:17;72.50;;;6.93;;
77248;SDS011;66280;45.124;20.718;2023-10-08T22:52:21;4.13;;;2.77;;
77248;SDS011;66280;45.124;20.718;2023-10-08T23:02:23;15.00;;;3.92;;
77248;SDS011;66280;45.124;20.718;2023-10-08T23:12:28;5.80;;;3.83;;
77248;SDS011;66280;45.124;20.718;2023-10-08T23:22:30;5.80;;;3.63;;
77248;SDS011;66280;45.124;20.718;2023-10-08T23:32:31;5.90;;;3.37;;
77248;SDS011;66280;45.124;20.718;2023-10-08T23:42:33;9.17;;;3.67;;
77248;SDS011;66280;45.124;20.718;2023-10-08T23:52:34;4.72;;;3.15;;
